sensor_id;sensor_type;location;lat;lon;timestamp;P1;durP1;ratioP1;P2;durP2;ratioP2
43700;SDS011;58809;47.984;7.964;2023-05-10T00:01:45;3.60;;;1.98;;
43700;SDS011;58809;47.984;7.964;2023-05-10T00:04:47;1.85;;;1.20;;
43700;SDS011;58809;47.984;7.964;2023-05-10T00:07:48;3.15;;;1.40;;
43700;SDS011;58809;47.984;7.964;2023-05-10T00:10:50;1.88;;;1.40;;
43700;SDS011;58809;47.984;7.964;2023-05-10T00:13:51;2.40;;;1.75;;
43700;SDS011;58809;47.984;7.964;2023-05-10T00:16:53;2.75;;;1.33;;
43700;SDS011;58809;47.984;7.964;2023-05-10T00:19:55;1.40;;;1.30;;
43700;SDS011;58809;47.984;7.964;2023-05-10T00:22:56;1.05;;;1.05;;
43700;SDS011;58809;47.984;7.964;2023-05-10T00:25:58;3.15;;;1.50;;
43700;SDS011;58809;47.984;7.964;2023-05-10T00:28:59;1.73;;;1.10;;
43700;SDS011;58809;47.984;7.964;2023-05-10T00:32:01;1.58;;;1.23;;
43700;SDS011;58809;47.984;7.964;2023-05-10T00:35:03;1.50;;;1.40;;
43700;SDS011;58809;47.984;7.964;2023-05-10T00:38:04;4.30;;;1.25;;
43700;SDS011;58809;47.984;7.964;2023-05-10T00:41:06;2.95;;;1.15;;
43700;SDS011;58809;47.984;7.964;2023-05-10T00:44:09;2.50;;;1.20;;
43700;SDS011;58809;47.984;7.964;2023-05-10T00:47:11;4.55;;;1.42;;
43700;SDS011;58809;47.984;7.964;2023-05-10T00:50:13;3.17;;;1.58;;
43700;SDS011;58809;47.984;7.964;2023-05-10T00:53:15;1.98;;;1.13;;
43700;SDS011;58809;47.984;7.964;2023-05-10T00:56:17;5.40;;;1.60;;
43700;SDS011;58809;47.984;7.964;2023-05-10T00:59:19;1.35;;;1.25;;
43700;SDS011;58809;47.984;7.964;2023-05-10T01:02:21;2.83;;;1.00;;
43700;SDS011;58809;47.984;7.964;2023-05-10T01:05:23;1.90;;;1.02;;
43700;SDS011;58809;47.984;7.964;2023-05-10T01:08:26;2.00;;;1.10;;
43700;SDS011;58809;47.984;7.964;2023-05-10T01:11:28;4.00;;;1.40;;
43700;SDS011;58809;47.984;7.964;2023-05-10T01:14:30;1.17;;;1.00;;
43700;SDS011;58809;47.984;7.964;2023-05-10T01:17:31;1.40;;;1.10;;
43700;SDS011;58809;47.984;7.964;2023-05-10T01:20:35;3.42;;;1.45;;
43700;SDS011;58809;47.984;7.964;2023-05-10T01:33:43;2.88;;;0.90;;
43700;SDS011;58809;47.984;7.964;2023-05-10T01:36:55;2.55;;;1.17;;
43700;SDS011;58809;47.984;7.964;2023-05-10T01:40:13;0.50;;;0.50;;
43700;SDS011;58809;47.984;7.964;2023-05-10T01:43:41;1.75;;;1.10;;
43700;SDS011;58809;47.984;7.964;2023-05-10T01:46:49;2.80;;;1.50;;
43700;SDS011;58809;47.984;7.964;2023-05-10T01:50:01;2.58;;;1.50;;
43700;SDS011;58809;47.984;7.964;2023-05-10T01:53:06;2.33;;;1.98;;
43700;SDS011;58809;47.984;7.964;2023-05-10T01:56:09;2.60;;;1.52;;
43700;SDS011;58809;47.984;7.964;2023-05-10T01:59:12;1.48;;;1.38;;
43700;SDS011;58809;47.984;7.964;2023-05-10T02:02:21;2.38;;;1.75;;
43700;SDS011;58809;47.984;7.964;2023-05-10T02:05:25;4.25;;;2.15;;
43700;SDS011;58809;47.984;7.964;2023-05-10T02:08:28;5.15;;;2.63;;
43700;SDS011;58809;47.984;7.964;2023-05-10T02:11:31;2.35;;;1.92;;
43700;SDS011;58809;47.984;7.964;2023-05-10T02:14:34;4.22;;;2.30;;
43700;SDS011;58809;47.984;7.964;2023-05-10T02:20:40;2.35;;;2.00;;
43700;SDS011;58809;47.984;7.964;2023-05-10T02:23:44;2.28;;;2.15;;
43700;SDS011;58809;47.984;7.964;2023-05-10T02:26:46;2.38;;;2.17;;
43700;SDS011;58809;47.984;7.964;2023-05-10T02:29:50;3.08;;;2.00;;
43700;SDS011;58809;47.984;7.964;2023-05-10T02:32:52;3.65;;;2.20;;
43700;SDS011;58809;47.984;7.964;2023-05-10T02:35:54;3.50;;;1.75;;
43700;SDS011;58809;47.984;7.964;2023-05-10T02:38:58;3.47;;;2.17;;
43700;SDS011;58809;47.984;7.964;2023-05-10T02:42:02;3.17;;;2.40;;
43700;SDS011;58809;47.984;7.964;2023-05-10T02:45:22;4.38;;;2.00;;
43700;SDS011;58809;47.984;7.964;2023-05-10T02:48:27;2.55;;;1.88;;
43700;SDS011;58809;47.984;7.964;2023-05-10T02:51:30;4.15;;;2.15;;
43700;SDS011;58809;47.984;7.964;2023-05-10T02:54:33;1.85;;;1.63;;
43700;SDS011;58809;47.984;7.964;2023-05-10T02:57:48;2.60;;;1.90;;
43700;SDS011;58809;47.984;7.964;2023-05-10T03:00:54;1.80;;;1.70;;
43700;SDS011;58809;47.984;7.964;2023-05-10T03:03:56;3.20;;;2.65;;
43700;SDS011;58809;47.984;7.964;2023-05-10T03:06:57;4.93;;;1.55;;
43700;SDS011;58809;47.984;7.964;2023-05-10T03:09:59;2.20;;;2.00;;
43700;SDS011;58809;47.984;7.964;2023-05-10T03:16:11;2.60;;;1.92;;
43700;SDS011;58809;47.984;7.964;2023-05-10T03:22:32;1.88;;;1.65;;
43700;SDS011;58809;47.984;7.964;2023-05-10T03:25:40;2.08;;;1.92;;
43700;SDS011;58809;47.984;7.964;2023-05-10T03:28:45;3.25;;;1.80;;
43700;SDS011;58809;47.984;7.964;2023-05-10T03:31:49;2.47;;;1.67;;
43700;SDS011;58809;47.984;7.964;2023-05-10T03:34:51;3.85;;;1.75;;
43700;SDS011;58809;47.984;7.964;2023-05-10T03:37:53;2.80;;;1.55;;
43700;SDS011;58809;47.984;7.964;2023-05-10T03:40:54;2.95;;;2.15;;
43700;SDS011;58809;47.984;7.964;2023-05-10T03:43:56;1.80;;;1.70;;
43700;SDS011;58809;47.984;7.964;2023-05-10T03:46:58;3.17;;;2.00;;
43700;SDS011;58809;47.984;7.964;2023-05-10T03:50:00;3.97;;;2.42;;
43700;SDS011;58809;47.984;7.964;2023-05-10T03:53:02;3.13;;;2.30;;
43700;SDS011;58809;47.984;7.964;2023-05-10T03:56:04;3.20;;;2.05;;
43700;SDS011;58809;47.984;7.964;2023-05-10T03:59:06;1.92;;;1.80;;
43700;SDS011;58809;47.984;7.964;2023-05-10T04:02:10;2.75;;;2.15;;
43700;SDS011;58809;47.984;7.964;2023-05-10T04:05:12;3.17;;;2.22;;
43700;SDS011;58809;47.984;7.964;2023-05-10T04:08:15;2.25;;;2.10;;
43700;SDS011;58809;47.984;7.964;2023-05-10T04:11:17;4.15;;;2.83;;
43700;SDS011;58809;47.984;7.964;2023-05-10T04:14:19;3.60;;;2.35;;
43700;SDS011;58809;47.984;7.964;2023-05-10T04:17:20;2.60;;;2.40;;
43700;SDS011;58809;47.984;7.964;2023-05-10T04:20:22;5.05;;;2.78;;
43700;SDS011;58809;47.984;7.964;2023-05-10T04:23:23;3.50;;;3.20;;
43700;SDS011;58809;47.984;7.964;2023-05-10T04:26:25;3.40;;;2.40;;
43700;SDS011;58809;47.984;7.964;2023-05-10T04:29:26;4.65;;;3.63;;
43700;SDS011;58809;47.984;7.964;2023-05-10T04:32:28;3.20;;;2.70;;
43700;SDS011;58809;47.984;7.964;2023-05-10T04:35:30;3.05;;;2.38;;
43700;SDS011;58809;47.984;7.964;2023-05-10T04:38:32;6.57;;;3.30;;
43700;SDS011;58809;47.984;7.964;2023-05-10T04:41:33;4.88;;;3.88;;
43700;SDS011;58809;47.984;7.964;2023-05-10T04:44:35;5.28;;;3.00;;
43700;SDS011;58809;47.984;7.964;2023-05-10T04:47:37;5.18;;;3.65;;
43700;SDS011;58809;47.984;7.964;2023-05-10T04:50:39;4.70;;;3.83;;
43700;SDS011;58809;47.984;7.964;2023-05-10T04:53:40;7.45;;;4.07;;
43700;SDS011;58809;47.984;7.964;2023-05-10T04:56:51;6.85;;;2.92;;
43700;SDS011;58809;47.984;7.964;2023-05-10T04:59:52;2.97;;;2.65;;
43700;SDS011;58809;47.984;7.964;2023-05-10T05:02:54;5.85;;;3.50;;
43700;SDS011;58809;47.984;7.964;2023-05-10T05:05:55;4.18;;;3.45;;
43700;SDS011;58809;47.984;7.964;2023-05-10T05:08:57;3.97;;;2.75;;
43700;SDS011;58809;47.984;7.964;2023-05-10T05:11:58;5.53;;;2.92;;
43700;SDS011;58809;47.984;7.964;2023-05-10T05:15:00;3.30;;;3.00;;
43700;SDS011;58809;47.984;7.964;2023-05-10T05:18:02;5.32;;;3.88;;
43700;SDS011;58809;47.984;7.964;2023-05-10T05:21:13;5.32;;;3.60;;
43700;SDS011;58809;47.984;7.964;2023-05-10T05:24:16;5.68;;;3.50;;
43700;SDS011;58809;47.984;7.964;2023-05-10T05:27:17;4.25;;;3.65;;
43700;SDS011;58809;47.984;7.964;2023-05-10T05:30:19;5.07;;;3.53;;
43700;SDS011;58809;47.984;7.964;2023-05-10T05:33:21;9.40;;;4.90;;
43700;SDS011;58809;47.984;7.964;2023-05-10T05:36:22;3.75;;;2.60;;
43700;SDS011;58809;47.984;7.964;2023-05-10T05:39:24;7.07;;;3.08;;
43700;SDS011;58809;47.984;7.964;2023-05-10T05:42:25;4.55;;;2.85;;
43700;SDS011;58809;47.984;7.964;2023-05-10T05:45:27;3.17;;;2.47;;
43700;SDS011;58809;47.984;7.964;2023-05-10T05:48:32;4.25;;;2.65;;
43700;SDS011;58809;47.984;7.964;2023-05-10T05:51:33;3.63;;;2.72;;
43700;SDS011;58809;47.984;7.964;2023-05-10T05:54:36;5.13;;;2.38;;
43700;SDS011;58809;47.984;7.964;2023-05-10T05:57:38;3.28;;;2.28;;
43700;SDS011;58809;47.984;7.964;2023-05-10T06:00:39;5.88;;;3.08;;
43700;SDS011;58809;47.984;7.964;2023-05-10T06:03:41;2.17;;;1.98;;
43700;SDS011;58809;47.984;7.964;2023-05-10T06:06:43;2.85;;;2.20;;
43700;SDS011;58809;47.984;7.964;2023-05-10T06:09:44;4.60;;;2.55;;
43700;SDS011;58809;47.984;7.964;2023-05-10T06:12:46;4.70;;;2.60;;
43700;SDS011;58809;47.984;7.964;2023-05-10T06:15:47;2.85;;;2.00;;
43700;SDS011;58809;47.984;7.964;2023-05-10T06:18:49;3.50;;;2.10;;
43700;SDS011;58809;47.984;7.964;2023-05-10T06:21:50;3.60;;;2.08;;
43700;SDS011;58809;47.984;7.964;2023-05-10T06:24:54;3.40;;;2.08;;
43700;SDS011;58809;47.984;7.964;2023-05-10T06:27:55;2.40;;;1.83;;
43700;SDS011;58809;47.984;7.964;2023-05-10T06:30:59;3.33;;;1.83;;
43700;SDS011;58809;47.984;7.964;2023-05-10T06:34:01;3.03;;;1.75;;
43700;SDS011;58809;47.984;7.964;2023-05-10T06:37:03;1.92;;;1.75;;
43700;SDS011;58809;47.984;7.964;2023-05-10T06:40:05;2.35;;;1.67;;
43700;SDS011;58809;47.984;7.964;2023-05-10T06:43:07;2.25;;;1.50;;
43700;SDS011;58809;47.984;7.964;2023-05-10T06:46:09;2.55;;;1.50;;
43700;SDS011;58809;47.984;7.964;2023-05-10T06:49:11;1.88;;;1.42;;
43700;SDS011;58809;47.984;7.964;2023-05-10T06:52:12;4.85;;;2.35;;
43700;SDS011;58809;47.984;7.964;2023-05-10T06:55:14;1.90;;;1.73;;
43700;SDS011;58809;47.984;7.964;2023-05-10T06:58:16;3.85;;;2.17;;
43700;SDS011;58809;47.984;7.964;2023-05-10T07:01:17;2.13;;;1.70;;
43700;SDS011;58809;47.984;7.964;2023-05-10T07:04:19;2.47;;;1.75;;
43700;SDS011;58809;47.984;7.964;2023-05-10T07:07:21;2.80;;;1.60;;
43700;SDS011;58809;47.984;7.964;2023-05-10T07:10:22;4.60;;;1.98;;
43700;SDS011;58809;47.984;7.964;2023-05-10T07:13:24;2.20;;;1.85;;
43700;SDS011;58809;47.984;7.964;2023-05-10T07:16:25;6.15;;;2.33;;
43700;SDS011;58809;47.984;7.964;2023-05-10T07:19:27;3.75;;;2.05;;
43700;SDS011;58809;47.984;7.964;2023-05-10T07:22:30;3.42;;;1.90;;
43700;SDS011;58809;47.984;7.964;2023-05-10T07:25:32;4.28;;;1.77;;
43700;SDS011;58809;47.984;7.964;2023-05-10T07:28:33;4.35;;;2.40;;
43700;SDS011;58809;47.984;7.964;2023-05-10T07:31:35;2.35;;;2.15;;
43700;SDS011;58809;47.984;7.964;2023-05-10T07:34:36;4.28;;;1.98;;
43700;SDS011;58809;47.984;7.964;2023-05-10T07:37:38;4.28;;;1.90;;
43700;SDS011;58809;47.984;7.964;2023-05-10T07:40:39;3.90;;;2.63;;
43700;SDS011;58809;47.984;7.964;2023-05-10T07:43:41;3.38;;;2.35;;
43700;SDS011;58809;47.984;7.964;2023-05-10T07:46:42;2.55;;;1.88;;
43700;SDS011;58809;47.984;7.964;2023-05-10T07:49:44;2.83;;;2.15;;
43700;SDS011;58809;47.984;7.964;2023-05-10T07:52:45;2.88;;;2.08;;
43700;SDS011;58809;47.984;7.964;2023-05-10T07:55:51;5.50;;;2.20;;
43700;SDS011;58809;47.984;7.964;2023-05-10T07:58:55;5.45;;;2.58;;
43700;SDS011;58809;47.984;7.964;2023-05-10T08:01:57;2.00;;;1.58;;
43700;SDS011;58809;47.984;7.964;2023-05-10T08:04:59;7.38;;;2.03;;
43700;SDS011;58809;47.984;7.964;2023-05-10T08:08:00;4.05;;;2.13;;
43700;SDS011;58809;47.984;7.964;2023-05-10T08:11:03;5.00;;;2.28;;
43700;SDS011;58809;47.984;7.964;2023-05-10T08:14:04;2.35;;;2.15;;
43700;SDS011;58809;47.984;7.964;2023-05-10T08:17:06;3.65;;;2.47;;
43700;SDS011;58809;47.984;7.964;2023-05-10T08:20:07;5.22;;;2.83;;
43700;SDS011;58809;47.984;7.964;2023-05-10T08:23:09;3.90;;;2.92;;
43700;SDS011;58809;47.984;7.964;2023-05-10T08:26:11;4.57;;;2.83;;
43700;SDS011;58809;47.984;7.964;2023-05-10T08:29:12;3.72;;;2.17;;
43700;SDS011;58809;47.984;7.964;2023-05-10T08:32:14;3.35;;;2.25;;
43700;SDS011;58809;47.984;7.964;2023-05-10T08:35:16;2.88;;;2.13;;
43700;SDS011;58809;47.984;7.964;2023-05-10T08:38:18;2.97;;;2.05;;
43700;SDS011;58809;47.984;7.964;2023-05-10T08:41:19;5.30;;;2.22;;
43700;SDS011;58809;47.984;7.964;2023-05-10T08:44:28;4.15;;;1.95;;
43700;SDS011;58809;47.984;7.964;2023-05-10T08:47:31;3.72;;;1.60;;
43700;SDS011;58809;47.984;7.964;2023-05-10T08:50:36;4.80;;;1.92;;
43700;SDS011;58809;47.984;7.964;2023-05-10T08:53:39;3.30;;;1.85;;
43700;SDS011;58809;47.984;7.964;2023-05-10T08:56:41;2.85;;;2.05;;
43700;SDS011;58809;47.984;7.964;2023-05-10T08:59:42;4.40;;;2.17;;
43700;SDS011;58809;47.984;7.964;2023-05-10T09:02:44;3.45;;;2.28;;
43700;SDS011;58809;47.984;7.964;2023-05-10T09:05:49;2.97;;;1.90;;
43700;SDS011;58809;47.984;7.964;2023-05-10T09:08:50;3.08;;;1.85;;
43700;SDS011;58809;47.984;7.964;2023-05-10T09:11:53;1.92;;;1.63;;
43700;SDS011;58809;47.984;7.964;2023-05-10T09:14:55;3.40;;;1.98;;
43700;SDS011;58809;47.984;7.964;2023-05-10T09:17:58;3.00;;;2.00;;
43700;SDS011;58809;47.984;7.964;2023-05-10T09:21:02;4.53;;;1.95;;
43700;SDS011;58809;47.984;7.964;2023-05-10T09:24:05;2.58;;;1.50;;
43700;SDS011;58809;47.984;7.964;2023-05-10T09:27:07;2.17;;;1.63;;
43700;SDS011;58809;47.984;7.964;2023-05-10T09:30:09;5.22;;;2.28;;
43700;SDS011;58809;47.984;7.964;2023-05-10T09:33:10;5.60;;;2.08;;
43700;SDS011;58809;47.984;7.964;2023-05-10T09:36:12;4.82;;;2.00;;
43700;SDS011;58809;47.984;7.964;2023-05-10T09:39:14;4.45;;;2.22;;
43700;SDS011;58809;47.984;7.964;2023-05-10T09:42:17;3.53;;;2.45;;
43700;SDS011;58809;47.984;7.964;2023-05-10T09:45:19;8.57;;;2.30;;
43700;SDS011;58809;47.984;7.964;2023-05-10T09:48:23;6.10;;;2.25;;
43700;SDS011;58809;47.984;7.964;2023-05-10T09:51:26;6.18;;;2.25;;
43700;SDS011;58809;47.984;7.964;2023-05-10T09:54:28;4.25;;;1.80;;
43700;SDS011;58809;47.984;7.964;2023-05-10T09:57:29;3.80;;;1.90;;
43700;SDS011;58809;47.984;7.964;2023-05-10T10:00:36;6.85;;;2.55;;
43700;SDS011;58809;47.984;7.964;2023-05-10T10:03:42;7.07;;;2.40;;
43700;SDS011;58809;47.984;7.964;2023-05-10T10:06:44;8.02;;;2.65;;
43700;SDS011;58809;47.984;7.964;2023-05-10T10:09:46;5.35;;;2.50;;
43700;SDS011;58809;47.984;7.964;2023-05-10T10:12:47;3.83;;;1.92;;
43700;SDS011;58809;47.984;7.964;2023-05-10T10:15:49;4.75;;;2.10;;
43700;SDS011;58809;47.984;7.964;2023-05-10T10:18:52;2.77;;;2.10;;
43700;SDS011;58809;47.984;7.964;2023-05-10T10:21:54;2.50;;;1.50;;
43700;SDS011;58809;47.984;7.964;2023-05-10T10:24:56;2.20;;;1.67;;
43700;SDS011;58809;47.984;7.964;2023-05-10T10:28:05;3.60;;;1.48;;
43700;SDS011;58809;47.984;7.964;2023-05-10T10:31:47;1.67;;;1.48;;
43700;SDS011;58809;47.984;7.964;2023-05-10T10:34:57;3.67;;;1.65;;
43700;SDS011;58809;47.984;7.964;2023-05-10T10:37:59;3.72;;;1.70;;
43700;SDS011;58809;47.984;7.964;2023-05-10T10:41:02;4.47;;;1.52;;
43700;SDS011;58809;47.984;7.964;2023-05-10T10:47:24;4.65;;;1.75;;
43700;SDS011;58809;47.984;7.964;2023-05-10T10:50:32;2.92;;;2.08;;
43700;SDS011;58809;47.984;7.964;2023-05-10T10:53:44;2.85;;;1.60;;
43700;SDS011;58809;47.984;7.964;2023-05-10T10:57:09;2.90;;;1.42;;
43700;SDS011;58809;47.984;7.964;2023-05-10T11:00:33;4.88;;;1.75;;
43700;SDS011;58809;47.984;7.964;2023-05-10T11:03:37;4.88;;;1.38;;
43700;SDS011;58809;47.984;7.964;2023-05-10T11:06:39;3.95;;;1.50;;
43700;SDS011;58809;47.984;7.964;2023-05-10T11:09:41;4.75;;;2.22;;
43700;SDS011;58809;47.984;7.964;2023-05-10T11:19:15;5.50;;;1.90;;
43700;SDS011;58809;47.984;7.964;2023-05-10T11:22:18;4.00;;;1.27;;
43700;SDS011;58809;47.984;7.964;2023-05-10T11:25:19;2.40;;;1.70;;
43700;SDS011;58809;47.984;7.964;2023-05-10T11:28:27;3.10;;;1.90;;
43700;SDS011;58809;47.984;7.964;2023-05-10T11:31:29;3.95;;;1.70;;
43700;SDS011;58809;47.984;7.964;2023-05-10T11:34:31;6.28;;;2.20;;
43700;SDS011;58809;47.984;7.964;2023-05-10T11:37:36;4.95;;;2.03;;
43700;SDS011;58809;47.984;7.964;2023-05-10T11:40:42;5.43;;;1.52;;
43700;SDS011;58809;47.984;7.964;2023-05-10T11:43:45;2.15;;;1.42;;
43700;SDS011;58809;47.984;7.964;2023-05-10T11:46:48;5.57;;;1.92;;
43700;SDS011;58809;47.984;7.964;2023-05-10T11:49:50;3.00;;;1.73;;
43700;SDS011;58809;47.984;7.964;2023-05-10T11:52:53;4.38;;;1.65;;
43700;SDS011;58809;47.984;7.964;2023-05-10T11:56:02;2.58;;;1.63;;
43700;SDS011;58809;47.984;7.964;2023-05-10T11:59:07;3.55;;;1.90;;
43700;SDS011;58809;47.984;7.964;2023-05-10T12:02:09;4.10;;;1.73;;
43700;SDS011;58809;47.984;7.964;2023-05-10T12:05:11;5.50;;;2.03;;
43700;SDS011;58809;47.984;7.964;2023-05-10T12:08:14;4.97;;;2.17;;
43700;SDS011;58809;47.984;7.964;2023-05-10T12:11:17;2.67;;;1.50;;
43700;SDS011;58809;47.984;7.964;2023-05-10T12:14:19;7.68;;;2.30;;
43700;SDS011;58809;47.984;7.964;2023-05-10T12:17:28;5.65;;;1.85;;
43700;SDS011;58809;47.984;7.964;2023-05-10T12:20:30;4.15;;;1.88;;
43700;SDS011;58809;47.984;7.964;2023-05-10T12:23:32;3.70;;;1.52;;
43700;SDS011;58809;47.984;7.964;2023-05-10T12:26:34;4.47;;;1.58;;
43700;SDS011;58809;47.984;7.964;2023-05-10T12:29:36;3.17;;;1.42;;
43700;SDS011;58809;47.984;7.964;2023-05-10T12:32:38;2.42;;;1.30;;
43700;SDS011;58809;47.984;7.964;2023-05-10T12:35:44;3.63;;;1.83;;
43700;SDS011;58809;47.984;7.964;2023-05-10T12:38:47;5.25;;;2.15;;
43700;SDS011;58809;47.984;7.964;2023-05-10T12:41:49;2.30;;;1.23;;
43700;SDS011;58809;47.984;7.964;2023-05-10T12:44:54;1.08;;;0.93;;
43700;SDS011;58809;47.984;7.964;2023-05-10T12:47:57;5.47;;;1.70;;
43700;SDS011;58809;47.984;7.964;2023-05-10T12:50:58;4.65;;;1.80;;
43700;SDS011;58809;47.984;7.964;2023-05-10T12:54:00;3.92;;;1.75;;
43700;SDS011;58809;47.984;7.964;2023-05-10T12:57:01;5.70;;;2.00;;
43700;SDS011;58809;47.984;7.964;2023-05-10T13:00:03;7.18;;;1.88;;
43700;SDS011;58809;47.984;7.964;2023-05-10T13:03:06;3.58;;;1.65;;
43700;SDS011;58809;47.984;7.964;2023-05-10T13:06:07;1.90;;;1.70;;
43700;SDS011;58809;47.984;7.964;2023-05-10T13:09:09;3.65;;;1.55;;
43700;SDS011;58809;47.984;7.964;2023-05-10T13:12:10;3.83;;;1.95;;
43700;SDS011;58809;47.984;7.964;2023-05-10T13:15:12;2.35;;;1.17;;
43700;SDS011;58809;47.984;7.964;2023-05-10T13:18:13;3.00;;;1.65;;
43700;SDS011;58809;47.984;7.964;2023-05-10T13:21:15;2.17;;;1.33;;
43700;SDS011;58809;47.984;7.964;2023-05-10T13:24:17;2.35;;;1.40;;
43700;SDS011;58809;47.984;7.964;2023-05-10T13:27:19;1.30;;;0.98;;
43700;SDS011;58809;47.984;7.964;2023-05-10T13:30:20;1.45;;;1.00;;
43700;SDS011;58809;47.984;7.964;2023-05-10T13:33:22;1.42;;;1.02;;
43700;SDS011;58809;47.984;7.964;2023-05-10T13:36:24;2.33;;;1.27;;
43700;SDS011;58809;47.984;7.964;2023-05-10T13:39:25;3.00;;;1.77;;
43700;SDS011;58809;47.984;7.964;2023-05-10T13:42:27;2.15;;;1.40;;
43700;SDS011;58809;47.984;7.964;2023-05-10T13:45:29;3.67;;;1.50;;
43700;SDS011;58809;47.984;7.964;2023-05-10T13:48:31;4.68;;;1.15;;
43700;SDS011;58809;47.984;7.964;2023-05-10T13:51:33;1.30;;;1.10;;
43700;SDS011;58809;47.984;7.964;2023-05-10T13:54:38;3.03;;;1.10;;
43700;SDS011;58809;47.984;7.964;2023-05-10T13:57:39;2.50;;;1.20;;
43700;SDS011;58809;47.984;7.964;2023-05-10T14:00:41;0.98;;;0.80;;
43700;SDS011;58809;47.984;7.964;2023-05-10T14:03:42;1.70;;;0.98;;
43700;SDS011;58809;47.984;7.964;2023-05-10T14:06:44;3.47;;;1.13;;
43700;SDS011;58809;47.984;7.964;2023-05-10T14:09:46;2.58;;;1.30;;
43700;SDS011;58809;47.984;7.964;2023-05-10T14:12:47;1.02;;;0.95;;
43700;SDS011;58809;47.984;7.964;2023-05-10T14:15:49;2.35;;;1.20;;
43700;SDS011;58809;47.984;7.964;2023-05-10T14:18:50;3.50;;;1.10;;
43700;SDS011;58809;47.984;7.964;2023-05-10T14:21:52;2.22;;;1.52;;
43700;SDS011;58809;47.984;7.964;2023-05-10T14:24:53;1.27;;;1.00;;
43700;SDS011;58809;47.984;7.964;2023-05-10T14:27:55;1.27;;;1.17;;
43700;SDS011;58809;47.984;7.964;2023-05-10T14:30:57;2.97;;;1.27;;
43700;SDS011;58809;47.984;7.964;2023-05-10T14:33:59;1.85;;;1.20;;
43700;SDS011;58809;47.984;7.964;2023-05-10T14:37:00;1.73;;;1.00;;
43700;SDS011;58809;47.984;7.964;2023-05-10T14:40:02;3.67;;;1.48;;
43700;SDS011;58809;47.984;7.964;2023-05-10T14:43:05;2.65;;;1.00;;
43700;SDS011;58809;47.984;7.964;2023-05-10T14:46:07;0.65;;;0.65;;
43700;SDS011;58809;47.984;7.964;2023-05-10T14:49:08;1.02;;;1.02;;
43700;SDS011;58809;47.984;7.964;2023-05-10T14:52:10;1.90;;;1.40;;
43700;SDS011;58809;47.984;7.964;2023-05-10T14:55:14;1.50;;;0.97;;
43700;SDS011;58809;47.984;7.964;2023-05-10T14:58:16;1.88;;;1.23;;
43700;SDS011;58809;47.984;7.964;2023-05-10T15:01:18;0.88;;;0.70;;
43700;SDS011;58809;47.984;7.964;2023-05-10T15:04:20;2.63;;;1.00;;
43700;SDS011;58809;47.984;7.964;2023-05-10T15:07:23;1.50;;;0.70;;
43700;SDS011;58809;47.984;7.964;2023-05-10T15:10:25;1.65;;;1.20;;
43700;SDS011;58809;47.984;7.964;2023-05-10T15:13:26;1.90;;;1.05;;
43700;SDS011;58809;47.984;7.964;2023-05-10T15:16:28;1.58;;;0.80;;
43700;SDS011;58809;47.984;7.964;2023-05-10T15:19:29;1.60;;;1.15;;
43700;SDS011;58809;47.984;7.964;2023-05-10T15:22:31;6.18;;;1.48;;
43700;SDS011;58809;47.984;7.964;2023-05-10T15:25:34;1.77;;;1.35;;
43700;SDS011;58809;47.984;7.964;2023-05-10T15:28:38;1.38;;;0.88;;
43700;SDS011;58809;47.984;7.964;2023-05-10T15:31:39;2.53;;;1.40;;
43700;SDS011;58809;47.984;7.964;2023-05-10T15:34:41;1.95;;;1.08;;
43700;SDS011;58809;47.984;7.964;2023-05-10T15:37:43;2.70;;;1.40;;
43700;SDS011;58809;47.984;7.964;2023-05-10T15:40:44;0.85;;;0.85;;
43700;SDS011;58809;47.984;7.964;2023-05-10T15:43:46;3.88;;;1.25;;
43700;SDS011;58809;47.984;7.964;2023-05-10T15:46:48;1.10;;;1.00;;
43700;SDS011;58809;47.984;7.964;2023-05-10T15:49:49;1.98;;;1.60;;
43700;SDS011;58809;47.984;7.964;2023-05-10T15:52:51;1.92;;;1.15;;
43700;SDS011;58809;47.984;7.964;2023-05-10T15:55:52;1.67;;;1.25;;
43700;SDS011;58809;47.984;7.964;2023-05-10T15:58:54;1.48;;;1.38;;
43700;SDS011;58809;47.984;7.964;2023-05-10T16:01:55;3.60;;;1.65;;
43700;SDS011;58809;47.984;7.964;2023-05-10T16:04:57;1.75;;;1.25;;
43700;SDS011;58809;47.984;7.964;2023-05-10T16:07:59;2.83;;;1.08;;
43700;SDS011;58809;47.984;7.964;2023-05-10T16:11:02;3.20;;;1.57;;
43700;SDS011;58809;47.984;7.964;2023-05-10T16:14:04;1.40;;;1.20;;
43700;SDS011;58809;47.984;7.964;2023-05-10T16:17:07;1.30;;;1.20;;
43700;SDS011;58809;47.984;7.964;2023-05-10T16:20:09;2.10;;;1.92;;
43700;SDS011;58809;47.984;7.964;2023-05-10T16:23:11;2.45;;;1.08;;
43700;SDS011;58809;47.984;7.964;2023-05-10T16:26:13;0.80;;;0.80;;
43700;SDS011;58809;47.984;7.964;2023-05-10T16:29:14;1.17;;;0.63;;
43700;SDS011;58809;47.984;7.964;2023-05-10T16:32:15;2.28;;;1.75;;
43700;SDS011;58809;47.984;7.964;2023-05-10T16:35:17;1.88;;;1.52;;
43700;SDS011;58809;47.984;7.964;2023-05-10T16:38:19;3.35;;;3.15;;
43700;SDS011;58809;47.984;7.964;2023-05-10T16:41:22;5.35;;;4.95;;
43700;SDS011;58809;47.984;7.964;2023-05-10T16:44:23;2.45;;;0.77;;
43700;SDS011;58809;47.984;7.964;2023-05-10T16:47:26;1.98;;;0.95;;
43700;SDS011;58809;47.984;7.964;2023-05-10T16:50:28;2.08;;;1.10;;
43700;SDS011;58809;47.984;7.964;2023-05-10T16:53:29;2.40;;;2.00;;
43700;SDS011;58809;47.984;7.964;2023-05-10T16:56:31;1.30;;;1.00;;
43700;SDS011;58809;47.984;7.964;2023-05-10T16:59:32;0.70;;;0.70;;
43700;SDS011;58809;47.984;7.964;2023-05-10T17:02:34;1.05;;;1.05;;
43700;SDS011;58809;47.984;7.964;2023-05-10T17:05:36;2.15;;;1.40;;
43700;SDS011;58809;47.984;7.964;2023-05-10T17:08:37;1.63;;;1.30;;
43700;SDS011;58809;47.984;7.964;2023-05-10T17:11:39;2.47;;;1.65;;
43700;SDS011;58809;47.984;7.964;2023-05-10T17:14:42;1.27;;;1.17;;
43700;SDS011;58809;47.984;7.964;2023-05-10T17:17:43;1.25;;;0.80;;
43700;SDS011;58809;47.984;7.964;2023-05-10T17:20:45;1.38;;;0.93;;
43700;SDS011;58809;47.984;7.964;2023-05-10T17:23:46;1.88;;;1.08;;
43700;SDS011;58809;47.984;7.964;2023-05-10T17:26:48;2.03;;;1.05;;
43700;SDS011;58809;47.984;7.964;2023-05-10T17:29:54;1.77;;;1.10;;
43700;SDS011;58809;47.984;7.964;2023-05-10T17:32:59;0.98;;;0.85;;
43700;SDS011;58809;47.984;7.964;2023-05-10T17:36:01;2.25;;;1.80;;
43700;SDS011;58809;47.984;7.964;2023-05-10T17:39:04;0.85;;;0.75;;
43700;SDS011;58809;47.984;7.964;2023-05-10T17:42:06;3.08;;;1.00;;
43700;SDS011;58809;47.984;7.964;2023-05-10T17:45:07;1.08;;;0.70;;
43700;SDS011;58809;47.984;7.964;2023-05-10T17:48:10;1.67;;;0.80;;
43700;SDS011;58809;47.984;7.964;2023-05-10T17:51:12;2.38;;;1.00;;
43700;SDS011;58809;47.984;7.964;2023-05-10T17:54:13;2.33;;;1.13;;
43700;SDS011;58809;47.984;7.964;2023-05-10T17:57:15;2.08;;;0.95;;
43700;SDS011;58809;47.984;7.964;2023-05-10T18:00:16;1.48;;;0.75;;
43700;SDS011;58809;47.984;7.964;2023-05-10T18:03:18;1.02;;;0.88;;
43700;SDS011;58809;47.984;7.964;2023-05-10T18:06:20;1.35;;;0.82;;
43700;SDS011;58809;47.984;7.964;2023-05-10T18:09:22;1.60;;;0.90;;
43700;SDS011;58809;47.984;7.964;2023-05-10T18:12:23;2.60;;;1.20;;
43700;SDS011;58809;47.984;7.964;2023-05-10T18:15:25;2.70;;;0.88;;
43700;SDS011;58809;47.984;7.964;2023-05-10T18:18:27;1.48;;;1.08;;
43700;SDS011;58809;47.984;7.964;2023-05-10T18:21:28;1.88;;;0.90;;
43700;SDS011;58809;47.984;7.964;2023-05-10T18:24:30;2.75;;;0.73;;
43700;SDS011;58809;47.984;7.964;2023-05-10T18:27:40;1.33;;;1.05;;
43700;SDS011;58809;47.984;7.964;2023-05-10T18:30:41;0.80;;;0.80;;
43700;SDS011;58809;47.984;7.964;2023-05-10T18:33:44;2.42;;;0.70;;
43700;SDS011;58809;47.984;7.964;2023-05-10T18:36:45;1.83;;;1.17;;
43700;SDS011;58809;47.984;7.964;2023-05-10T18:39:47;0.90;;;0.70;;
43700;SDS011;58809;47.984;7.964;2023-05-10T18:42:48;2.90;;;0.60;;
43700;SDS011;58809;47.984;7.964;2023-05-10T18:45:50;1.02;;;0.57;;
43700;SDS011;58809;47.984;7.964;2023-05-10T18:48:52;0.73;;;0.70;;
43700;SDS011;58809;47.984;7.964;2023-05-10T18:51:54;1.20;;;0.80;;